Sedgwick, KS (67135)

9:59 AM CST on March 04, 2015 (GMT -0600)
Harbor Isle | Change Station
CLOSE
Current Station
Personal Weather Station
Location: Wichita, KS
Elevation: 1319 ft
Nearby Weather Stations

Elev 1319 ft 37.77 °N, 97.37 °W | Updated 3 minutes ago

Overcast
Overcast
20.8 °F
Feels Like 21 °F
N
2.0
Wind Variable Wind from NNE
Gusts 18.0 mph

Today
High -- | Low -- °F
--% Chance of Precip.
Yesterday
High -- | Low -- °F
Precip. -- in
6:57 AM 6:26 PM
Waxing Gibbous, 99% visible
Pressure 30.31 in
Visibility 10.0 miles
Clouds Scattered Clouds 3500 ft
Overcast 8000 ft
Windchill 21 °F
Dew Point 16 °F
Humidity 81%
Rainfall 0.00 in
Snow Depth Not available.
UV 0.0 out of 12
Pollen .50 out of 12
Air Quality Not available.
Flu Activity Not available.
METAR KEWK 041555Z AUTO 02017KT 10SM SCT035 OVC080 M07/M12 A3031 RMK AO1

More Conditions Fewer Conditions

Pressure 30.31 in
Visibility 10.0 miles
Clouds Scattered Clouds 3500 ft
Overcast 8000 ft
Windchill 21 °F
Dew Point 16 °F
Humidity 81%
Rainfall 0.00 in
Snow Depth Not available.
UV 0.0 out of 12
Pollen .50 out of 12
Air Quality Not available.
Flu Activity Not available.
METAR KEWK 041555Z AUTO 02017KT 10SM SCT035 OVC080 M07/M12 A3031 RMK AO1

More Conditions Fewer Conditions

10-Day Weather Forecast

Almanac

Astronomy

Mar. 04, 2015 Rise Set
Actual Time
Civil Twilight
Nautical Twilight
Astronomical Twilight
Moon
Length of Visible Light
Length of Day
Tomorrow will be .
, % of the Moon is Illuminated

Today's Extremes

State Highs State Lows

Community

WunderPhotos

Upload Photos

1,802,496 photos uploaded!

WunderBlogs® & News

Nearby

Air Quality

  Air Quality AQ Index Pollutant
Not available.

Snow Depth

Station Depth Elevation

Earthquake Activity

City Distance Mag. Time & Date
Minimum magnitude displayed is 2.5.

Coastal Water Temperatures

Place Temperature

Nearby Weather Stations

Winter Weather Advisory
Statement as of 3:01 AM CST on March 04, 2015

... Winter Weather Advisory remains in effect until 6 PM CST this
evening...

* timing... a band of light to moderate snow will affect the area
mainly this morning. The band of snow will then sink slowly
southward and exit the area by later this afternoon.

* Snow accumulations... will generally range from 1 to 2
inches... mainly for locations along and near a Hutchinson to
Newton... to Marion line. Snow accumulations are expected to be
slightly Lower North and south of this line.

* Main impact... the snow accumulation will cause some slick spots
on roadways.

Precautionary/preparedness actions...

A Winter Weather Advisory means that periods of winter weather
will cause travel difficulties. Be prepared for slippery roads
and limited visibilities. Use caution while driving.



Jakub